| Time | Avg. Air Temp | Dew Point | Avg. Rel Humidity | Avg. 2 Min Wind Speed | Max Gust Velocity | MGV Time | MGV Direction | Avg. Spot Wind Velocity |
|---|---|---|---|---|---|---|---|---|
| 2026-05-04 07:10:00 | 3° C | -4° C | 60% | 34 km/h | 38 km/h | 07:08:00 | NE | 24 km/h |
| 06:10:00 | 4° C | -4° C | 59% | 20 km/h | 23 km/h | 06:09:00 | NE | 20 km/h |
| 05:10:00 | 4° C | -4° C | 58% | 24 km/h | 25 km/h | 05:06:00 | NE | 24 km/h |
| 04:10:00 | 4° C | -4° C | 55% | 20 km/h | 24 km/h | 04:10:00 | N | 15 km/h |
| 03:10:00 | 4° C | -4° C | 57% | 5 km/h | 31 km/h | 03:07:00 | NE | 15 km/h |
| 02:10:00 | 4° C | -4° C | 57% | 3 km/h | 24 km/h | 02:06:00 | W | 5 km/h |
| 01:10:00 | 4° C | -4° C | 57% | 5 km/h | 15 km/h | 01:10:00 | N | 5 km/h |
| 00:10:00 | 5° C | -4° C | 52% | 6 km/h | 11 km/h | 00:09:00 | S | 6 km/h |
| 23:10:00 | 5° C | -3° C | 53% | 7 km/h | 24 km/h | 23:08:00 | NE | 10 km/h |
| 22:10:00 | 6° C | -3° C | 55% | 5 km/h | 20 km/h | 22:07:00 | S | 9 km/h |
| 21:10:00 | 6° C | -3° C | 52% | 8 km/h | 18 km/h | 21:06:00 | NW | 10 km/h |
| 20:10:00 | 7° C | -3° C | 49% | 20 km/h | 23 km/h | 20:07:00 | NW | 20 km/h |
| 19:10:00 | 7° C | -3° C | 51% | 6 km/h | 13 km/h | 19:09:00 | NW | 2 km/h |
| 18:10:00 | 7° C | -3° C | 49% | 8 km/h | 19 km/h | 18:08:00 | N | 12 km/h |
| 17:10:00 | 7° C | -4° C | 49% | 9 km/h | 18 km/h | 17:09:00 | NW | 7 km/h |
| 16:10:00 | 7° C | -3° C | 49% | 16 km/h | 24 km/h | 16:07:00 | NW | 20 km/h |
| 15:10:00 | 7° C | -3° C | 50% | 4 km/h | 12 km/h | 15:08:00 | NW | 7 km/h |
| 14:10:00 | 6° C | -3° C | 51% | 10 km/h | 25 km/h | 14:07:00 | N | 15 km/h |
| 13:10:00 | 5° C | -4° C | 53% | 14 km/h | 19 km/h | 13:09:00 | NW | 14 km/h |
| 12:10:00 | 5° C | -4° C | 51% | 13 km/h | 19 km/h | 12:10:00 | NW | 12 km/h |
| 11:10:00 | 5° C | -5° C | 49% | 10 km/h | 15 km/h | 11:09:00 | NW | 11 km/h |
| 10:10:00 | 4° C | -6° C | 50% | 10 km/h | 14 km/h | 10:07:00 | NW | 11 km/h |
| 09:10:00 | 4° C | -6° C | 51% | 5 km/h | 11 km/h | 09:08:00 | N | 4 km/h |
| 08:10:00 | 3° C | -6° C | 52% | 5 km/h | 16 km/h | 08:06:00 | SW | 7 km/h |
Subpeak Weather
| Time | Avg. Air Temp | Dew Point | Avg. Rel Humidity | Avg. 2 Min Wind Speed | Max Gust Velocity | MGV Time | MGV Direction | Avg. Spot Wind Velocity |
|---|---|---|---|---|---|---|---|---|
| 2026-05-04 07:10:00 | 3° C | -4° C | 60% | 34 km/h | 38 km/h | 07:08:00 | NE | 24 km/h |
| 07:05:00 | 3° C | -4° C | 60% | 31 km/h | 38 km/h | 07:02:00 | NE | 36 km/h |
| 07:00:00 | 3° C | -3° C | 60% | 35 km/h | 39 km/h | 06:59:00 | NE | 34 km/h |
| 06:55:00 | 3° C | -4° C | 59% | 34 km/h | 39 km/h | 06:55:00 | NE | 34 km/h |
| 06:50:00 | 3° C | -4° C | 59% | 34 km/h | 39 km/h | 06:50:00 | NE | 33 km/h |
| 06:45:00 | 3° C | -3° C | 60% | 32 km/h | 36 km/h | 06:45:00 | NE | 30 km/h |
| 06:40:00 | 3° C | -4° C | 60% | 29 km/h | 36 km/h | 06:38:00 | NE | 27 km/h |
| 06:35:00 | 3° C | -4° C | 61% | 29 km/h | 33 km/h | 06:35:00 | NE | 25 km/h |
| 06:30:00 | 3° C | -4° C | 62% | 23 km/h | 27 km/h | 06:27:00 | NE | 22 km/h |
| 06:25:00 | 3° C | -3° C | 61% | 24 km/h | 26 km/h | 06:25:00 | NE | 23 km/h |
| 06:20:00 | 3° C | -4° C | 60% | 23 km/h | 25 km/h | 06:20:00 | NE | 22 km/h |
| 06:15:00 | 3° C | -4° C | 60% | 22 km/h | 24 km/h | 06:15:00 | NE | 21 km/h |
| 06:10:00 | 4° C | -4° C | 59% | 20 km/h | 23 km/h | 06:09:00 | NE | 20 km/h |




